createdAt,value
2022-12-12T00:02:30.274Z,10.60
2022-12-12T00:05:56.358Z,10.20
2022-12-12T00:09:18.068Z,9.60
2022-12-12T00:12:39.969Z,10.33
2022-12-12T00:16:01.988Z,9.73
2022-12-12T00:19:23.799Z,10.27
2022-12-12T00:22:47.247Z,11.07
2022-12-12T00:26:15.134Z,10.60
2022-12-12T00:29:37.135Z,9.90
2022-12-12T00:32:59.141Z,9.97
2022-12-12T00:36:24.305Z,11.00
2022-12-12T00:39:47.165Z,9.60
2022-12-12T00:43:08.874Z,10.13
2022-12-12T00:46:30.502Z,10.20
2022-12-12T00:49:52.203Z,10.43
2022-12-12T00:53:14.329Z,10.17
2022-12-12T00:56:37.595Z,9.57
2022-12-12T00:59:59.423Z,11.13
2022-12-12T01:03:21.865Z,9.87
2022-12-12T01:06:43.869Z,10.10
2022-12-12T01:10:07.584Z,11.03
2022-12-12T01:13:31.014Z,10.53
2022-12-12T01:16:52.814Z,10.43
2022-12-12T01:20:19.626Z,10.10
2022-12-12T01:23:42.113Z,10.63
2022-12-12T01:27:03.813Z,11.10
2022-12-12T01:30:28.135Z,10.13
2022-12-12T01:33:50.052Z,10.23
2022-12-12T01:37:11.761Z,11.90
2022-12-12T01:40:33.865Z,10.67
2022-12-12T01:43:56.284Z,10.80
2022-12-12T01:47:22.203Z,10.33
2022-12-12T01:50:45.670Z,10.23
2022-12-12T01:54:11.407Z,10.23
2022-12-12T01:57:37.469Z,11.27
2022-12-12T02:00:59.977Z,10.30
2022-12-12T02:04:24.093Z,10.90
2022-12-12T02:07:45.789Z,10.53
2022-12-12T02:11:07.717Z,11.27
2022-12-12T02:14:33.287Z,10.20
2022-12-12T02:18:12.373Z,10.13
2022-12-12T02:21:43.450Z,10.40
2022-12-12T02:25:37.875Z,10.40
2022-12-12T02:29:37.394Z,9.80
2022-12-12T02:33:27.370Z,9.63
2022-12-12T02:37:00.670Z,10.70
2022-12-12T02:40:26.018Z,10.03
2022-12-12T02:43:57.697Z,9.87
2022-12-12T02:47:22.706Z,9.87
2022-12-12T02:50:48.618Z,9.17
2022-12-12T02:54:15.477Z,9.70
2022-12-12T02:57:37.454Z,10.03
2022-12-12T03:01:12.189Z,10.37
2022-12-12T03:05:02.754Z,10.13
2022-12-12T03:08:41.766Z,10.53
2022-12-12T03:12:09.934Z,10.00
2022-12-12T03:15:43.934Z,9.67
2022-12-12T03:19:11.998Z,9.20
2022-12-12T03:22:42.731Z,8.90
2022-12-12T03:26:11.669Z,8.97
2022-12-12T03:29:39.365Z,8.80
2022-12-12T03:33:05.491Z,8.07
2022-12-12T03:36:31.430Z,8.00
2022-12-12T03:39:58.496Z,8.30
2022-12-12T03:43:26.258Z,8.37
2022-12-12T03:46:52.993Z,8.23
2022-12-12T03:50:20.799Z,7.73
2022-12-12T03:53:48.228Z,8.13
2022-12-12T03:57:13.161Z,7.90
2022-12-12T04:00:38.092Z,8.50
2022-12-12T04:04:04.242Z,8.20
2022-12-12T04:07:31.811Z,7.27
2022-12-12T04:11:15.645Z,7.27
2022-12-12T04:14:55.911Z,6.90
2022-12-12T04:18:26.676Z,7.03
2022-12-12T04:22:16.737Z,6.07
2022-12-12T04:26:10.730Z,5.73
2022-12-12T04:29:38.838Z,5.47
2022-12-12T04:33:07.260Z,5.97
2022-12-12T04:36:32.121Z,5.67
2022-12-12T04:39:57.848Z,5.57
2022-12-12T04:43:22.911Z,5.80
2022-12-12T04:46:46.076Z,5.73
2022-12-12T04:50:10.454Z,7.20
2022-12-12T04:53:39.566Z,5.90
2022-12-12T04:57:06.349Z,6.17
2022-12-12T05:00:35.258Z,6.37
2022-12-12T05:03:59.886Z,5.67
2022-12-12T05:07:28.921Z,5.37
2022-12-12T05:10:56.160Z,5.80
2022-12-12T05:14:19.198Z,5.30
2022-12-12T05:17:45.647Z,4.90
2022-12-12T05:21:11.865Z,5.70
2022-12-12T05:24:33.631Z,5.40
2022-12-12T05:27:57.262Z,5.90
2022-12-12T05:31:19.803Z,5.70
2022-12-12T05:34:41.778Z,5.70
2022-12-12T05:38:03.846Z,5.13
2022-12-12T05:41:25.442Z,5.50
2022-12-12T05:44:48.964Z,4.90
2022-12-12T05:48:10.738Z,5.47
2022-12-12T05:51:32.704Z,4.87
2022-12-12T05:54:55.783Z,5.03
2022-12-12T05:58:17.874Z,5.63
2022-12-12T06:01:40.944Z,4.83
2022-12-12T06:05:02.847Z,5.03
2022-12-12T06:08:25.325Z,4.80
2022-12-12T06:11:47.314Z,4.20
2022-12-12T06:15:10.560Z,4.63
2022-12-12T06:18:33.682Z,4.37
2022-12-12T06:21:55.279Z,3.90
2022-12-12T06:25:17.151Z,3.70
2022-12-12T06:28:39.904Z,4.73
2022-12-12T06:32:01.578Z,3.57
2022-12-12T06:35:24.827Z,4.37
2022-12-12T06:38:46.881Z,4.70
2022-12-12T06:42:08.750Z,4.77
2022-12-12T06:45:30.742Z,4.50
2022-12-12T06:48:53.156Z,4.30
2022-12-12T06:52:16.592Z,4.90
2022-12-12T06:55:42.830Z,4.93
2022-12-12T06:59:04.823Z,4.40
2022-12-12T07:02:29.938Z,4.37
2022-12-12T07:05:52.243Z,4.43
2022-12-12T07:09:15.738Z,4.30
2022-12-12T07:12:37.699Z,3.93
2022-12-12T07:15:59.581Z,4.07
2022-12-12T07:19:22.727Z,4.03
2022-12-12T07:22:44.295Z,4.23
2022-12-12T07:26:09.810Z,4.53
2022-12-12T07:29:31.578Z,4.97
2022-12-12T07:32:53.647Z,4.60
2022-12-12T07:36:16.706Z,4.50
2022-12-12T07:39:38.689Z,4.90
2022-12-12T07:43:02.202Z,5.00
2022-12-12T07:46:26.971Z,4.40
2022-12-12T07:49:49.010Z,4.83
2022-12-12T07:53:11.016Z,4.70
2022-12-12T07:56:33.039Z,4.10
2022-12-12T07:59:56.326Z,4.90
2022-12-12T08:03:18.262Z,4.90
2022-12-12T08:06:40.116Z,4.53
2022-12-12T08:10:01.974Z,4.50
2022-12-12T08:13:23.886Z,4.13
2022-12-12T08:16:47.175Z,3.47
2022-12-12T08:20:10.435Z,6.13
2022-12-12T08:23:32.528Z,4.73
2022-12-12T08:26:54.459Z,4.30
2022-12-12T08:30:16.406Z,5.50
2022-12-12T08:33:39.847Z,4.53
2022-12-12T08:37:01.719Z,5.27
2022-12-12T08:40:24.168Z,4.60
2022-12-12T08:43:46.763Z,4.27
2022-12-12T08:47:08.563Z,3.77
2022-12-12T08:50:31.438Z,4.03
2022-12-12T08:53:54.345Z,4.63
2022-12-12T08:57:16.143Z,3.83
2022-12-12T09:00:38.354Z,3.60
2022-12-12T09:04:00.252Z,3.50
2022-12-12T09:07:23.390Z,3.00
2022-12-12T09:10:50.086Z,3.90
2022-12-12T09:14:12.179Z,4.30
2022-12-12T09:17:34.238Z,3.97
2022-12-12T09:20:57.408Z,4.00
2022-12-12T09:24:20.806Z,4.03
2022-12-12T09:27:42.621Z,4.20
2022-12-12T09:31:06.024Z,4.70
2022-12-12T09:34:27.835Z,4.63
2022-12-12T09:37:49.783Z,4.93
2022-12-12T09:41:17.000Z,4.83
2022-12-12T09:44:39.784Z,5.03
2022-12-12T09:48:04.238Z,4.60
2022-12-12T09:51:25.960Z,4.30
2022-12-12T09:54:47.700Z,4.70
2022-12-12T09:58:27.495Z,4.40
2022-12-12T10:01:59.291Z,4.37
2022-12-12T10:05:31.199Z,4.23
2022-12-12T10:09:05.310Z,4.20
2022-12-12T10:12:27.975Z,4.47
2022-12-12T10:15:54.819Z,4.50
2022-12-12T10:19:21.812Z,4.40
2022-12-12T10:22:50.705Z,4.67
2022-12-12T10:26:18.251Z,4.00
2022-12-12T10:29:42.833Z,3.93
2022-12-12T10:33:17.801Z,3.77
2022-12-12T10:36:56.501Z,4.20
2022-12-12T10:40:41.417Z,3.67
2022-12-12T10:44:06.845Z,3.60
2022-12-12T10:47:28.933Z,4.10
2022-12-12T10:50:57.423Z,3.97
2022-12-12T10:54:21.642Z,3.80
2022-12-12T10:57:43.227Z,3.63
2022-12-12T11:01:11.939Z,3.40
2022-12-12T11:04:33.432Z,3.93
2022-12-12T11:08:03.772Z,4.03
2022-12-12T11:11:27.047Z,3.63
2022-12-12T11:14:50.912Z,4.00
2022-12-12T11:18:16.869Z,3.50
2022-12-12T11:21:39.616Z,3.30
2022-12-12T11:25:02.847Z,3.53
2022-12-12T11:28:31.090Z,3.43
2022-12-12T11:31:53.334Z,3.30
2022-12-12T11:35:24.261Z,3.90
2022-12-12T11:38:50.164Z,3.40
2022-12-12T11:42:22.653Z,3.60
2022-12-12T11:45:44.512Z,3.80
2022-12-12T11:49:19.156Z,3.83
2022-12-12T11:52:41.064Z,4.07
2022-12-12T11:56:25.911Z,3.13
2022-12-12T12:00:07.183Z,3.13
2022-12-12T12:03:38.889Z,3.70
2022-12-12T12:07:15.066Z,3.93
2022-12-12T12:10:47.649Z,3.80
2022-12-12T12:14:25.250Z,5.20
2022-12-12T12:18:26.704Z,4.80
2022-12-12T12:22:01.825Z,4.33
2022-12-12T12:25:36.937Z,4.77
2022-12-12T12:29:21.142Z,4.43
2022-12-12T12:33:01.756Z,4.07
2022-12-12T12:36:30.946Z,3.50
2022-12-12T12:40:06.097Z,3.50
2022-12-12T12:43:51.273Z,3.93
2022-12-12T12:47:25.494Z,3.80
2022-12-12T12:50:53.623Z,3.80
2022-12-12T12:54:23.859Z,3.47
2022-12-12T12:57:49.558Z,3.23
2022-12-12T13:01:15.483Z,2.90
2022-12-12T13:04:42.945Z,3.20
2022-12-12T13:08:14.135Z,3.00
2022-12-12T13:11:40.224Z,3.10
2022-12-12T13:15:05.900Z,2.77
2022-12-12T13:18:37.169Z,2.53
2022-12-12T13:22:10.564Z,2.33
2022-12-12T13:25:39.911Z,2.43
2022-12-12T13:29:06.653Z,2.90
2022-12-12T13:32:57.689Z,2.90
2022-12-12T13:36:29.083Z,3.43
2022-12-12T13:40:00.332Z,3.60
2022-12-12T13:43:30.343Z,3.13
2022-12-12T13:46:53.261Z,2.80
2022-12-12T13:50:22.611Z,2.17
2022-12-12T13:53:45.133Z,2.80
2022-12-12T13:57:11.434Z,2.97
2022-12-12T14:00:34.323Z,2.80
2022-12-12T14:03:57.627Z,3.30
2022-12-12T14:07:24.051Z,2.70
2022-12-12T14:11:01.094Z,3.27
2022-12-12T14:14:23.974Z,3.60
2022-12-12T14:17:54.506Z,3.03
2022-12-12T14:21:19.822Z,3.43
2022-12-12T14:25:06.884Z,3.10
2022-12-12T14:28:30.204Z,3.93
2022-12-12T14:32:01.397Z,5.30
2022-12-12T14:35:35.542Z,4.77
2022-12-12T14:39:10.588Z,5.40
2022-12-12T14:43:20.977Z,5.67
2022-12-12T14:46:24.444Z,6.47
2022-12-12T14:49:46.688Z,4.47
2022-12-12T14:53:17.110Z,4.70
2022-12-12T14:56:46.330Z,3.73
2022-12-12T15:00:19.204Z,4.00
2022-12-12T15:03:45.717Z,3.80
2022-12-12T15:07:22.575Z,4.00
2022-12-12T15:10:44.499Z,4.30
2022-12-12T15:14:07.604Z,4.80
2022-12-12T15:17:31.954Z,3.67
2022-12-12T15:20:57.924Z,5.50
2022-12-12T15:24:23.072Z,4.40
2022-12-12T15:27:52.306Z,4.20
2022-12-12T15:31:19.793Z,4.13
2022-12-12T15:34:43.962Z,4.03
2022-12-12T15:38:12.438Z,4.33
2022-12-12T15:41:34.452Z,3.73
2022-12-12T15:44:56.960Z,4.10
2022-12-12T15:48:20.682Z,3.80
2022-12-12T15:51:42.307Z,4.30
2022-12-12T15:55:05.530Z,4.30
2022-12-12T15:58:30.404Z,3.77
2022-12-12T16:01:52.003Z,3.77
2022-12-12T16:05:30.220Z,4.23
2022-12-12T16:09:01.015Z,3.97
2022-12-12T16:12:57.620Z,4.53
2022-12-12T16:16:42.653Z,4.57
2022-12-12T16:20:07.707Z,3.97
2022-12-12T16:23:32.926Z,4.07
2022-12-12T16:26:58.773Z,4.03
2022-12-12T16:30:20.806Z,4.60
2022-12-12T16:33:43.000Z,4.73
2022-12-12T16:37:04.834Z,4.73
2022-12-12T16:40:28.038Z,5.17
2022-12-12T16:43:49.874Z,4.60
2022-12-12T16:47:19.347Z,4.60
2022-12-12T16:50:40.962Z,4.97
2022-12-12T16:54:02.955Z,4.20
2022-12-12T16:57:26.466Z,4.00
2022-12-12T17:00:49.369Z,3.90
2022-12-12T17:04:19.912Z,4.27
2022-12-12T17:07:41.565Z,5.33
2022-12-12T17:11:09.963Z,5.40
2022-12-12T17:14:34.038Z,5.10
2022-12-12T17:17:56.395Z,4.60
2022-12-12T17:21:17.838Z,4.50
2022-12-12T17:24:39.284Z,4.43
2022-12-12T17:28:01.184Z,4.57
2022-12-12T17:31:24.208Z,4.40
2022-12-12T17:34:45.821Z,5.07
2022-12-12T17:38:09.200Z,4.63
2022-12-12T17:41:34.509Z,4.33
2022-12-12T17:44:55.974Z,4.00
2022-12-12T17:48:19.275Z,4.73
2022-12-12T17:51:41.310Z,4.93
2022-12-12T17:55:52.180Z,4.47
2022-12-12T17:58:46.538Z,4.93
2022-12-12T18:02:08.526Z,4.43
2022-12-12T18:05:32.444Z,4.00
2022-12-12T18:08:55.621Z,4.33
2022-12-12T18:12:17.322Z,4.80
2022-12-12T18:15:41.345Z,5.37
2022-12-12T18:19:03.437Z,5.93
2022-12-12T18:22:26.619Z,4.60
2022-12-12T18:25:48.218Z,4.80
2022-12-12T18:29:11.928Z,4.53
2022-12-12T18:32:33.865Z,4.50
2022-12-12T18:36:01.972Z,4.87
2022-12-12T18:39:24.830Z,4.93
2022-12-12T18:42:46.967Z,4.30
2022-12-12T18:46:10.797Z,4.70
2022-12-12T18:49:32.607Z,4.73
2022-12-12T18:52:56.070Z,5.03
2022-12-12T18:56:21.580Z,4.53
2022-12-12T18:59:43.457Z,4.10
2022-12-12T19:03:06.177Z,5.83
2022-12-12T19:06:33.757Z,4.17
2022-12-12T19:09:55.695Z,4.50
2022-12-12T19:13:19.095Z,4.60
2022-12-12T19:16:40.936Z,5.17
2022-12-12T19:20:02.838Z,5.00
2022-12-12T19:23:24.301Z,4.00
2022-12-12T19:26:46.513Z,4.47
2022-12-12T19:30:12.323Z,4.50
2022-12-12T19:33:34.482Z,4.03
2022-12-12T19:36:56.247Z,4.53
2022-12-12T19:40:19.008Z,4.90
2022-12-12T19:43:40.987Z,5.93
2022-12-12T19:47:03.966Z,4.50
2022-12-12T19:50:25.571Z,5.10
2022-12-12T19:53:49.754Z,5.10
2022-12-12T19:57:11.699Z,5.20
2022-12-12T20:00:33.620Z,4.73
2022-12-12T20:03:58.933Z,5.30
2022-12-12T20:07:20.794Z,4.83
2022-12-12T20:10:42.671Z,5.57
2022-12-12T20:14:05.246Z,5.20
2022-12-12T20:17:27.231Z,6.23
2022-12-12T20:20:56.847Z,7.43
2022-12-12T20:24:19.618Z,6.67
2022-12-12T20:27:42.234Z,7.07
2022-12-12T20:31:05.845Z,5.30
2022-12-12T20:34:28.087Z,4.30
2022-12-12T20:37:51.482Z,3.60
2022-12-12T20:41:14.780Z,3.70
2022-12-12T20:44:36.755Z,3.93
2022-12-12T20:48:01.710Z,4.33
2022-12-12T20:51:54.262Z,3.37
2022-12-12T20:55:13.521Z,3.80
2022-12-12T20:58:35.718Z,3.67
2022-12-12T21:01:57.763Z,4.17
2022-12-12T21:05:19.493Z,4.17
2022-12-12T21:08:41.763Z,4.33
2022-12-12T21:12:05.434Z,3.60
2022-12-12T21:15:27.316Z,3.40
2022-12-12T21:18:51.746Z,3.57
2022-12-12T21:22:13.838Z,3.30
2022-12-12T21:25:37.375Z,3.17
2022-12-12T21:29:02.371Z,3.03
2022-12-12T21:32:24.510Z,3.73
2022-12-12T21:35:47.248Z,3.53
2022-12-12T21:39:10.388Z,2.83
2022-12-12T21:42:32.367Z,3.40
2022-12-12T21:45:55.490Z,4.47
2022-12-12T21:49:26.489Z,3.13
2022-12-12T21:53:12.645Z,3.10
2022-12-12T21:56:34.476Z,3.30
2022-12-12T21:59:56.394Z,4.27
2022-12-12T22:03:19.473Z,3.60
2022-12-12T22:06:41.770Z,4.73
2022-12-12T22:10:10.990Z,4.07
2022-12-12T22:13:39.644Z,4.10
2022-12-12T22:17:02.242Z,3.97
2022-12-12T22:20:25.639Z,3.93
2022-12-12T22:23:50.777Z,3.87
2022-12-12T22:27:12.349Z,4.60
2022-12-12T22:30:34.433Z,4.47
2022-12-12T22:33:59.243Z,5.27
2022-12-12T22:37:22.327Z,4.90
2022-12-12T22:40:44.093Z,5.43
2022-12-12T22:44:07.482Z,5.17
2022-12-12T22:47:29.374Z,5.30
2022-12-12T22:50:51.891Z,5.90
2022-12-12T22:54:15.266Z,4.80
2022-12-12T22:57:37.316Z,5.43
2022-12-12T23:01:07.110Z,5.77
2022-12-12T23:04:28.729Z,4.70
2022-12-12T23:07:50.877Z,5.03
2022-12-12T23:11:15.857Z,5.83
2022-12-12T23:14:37.737Z,5.00
2022-12-12T23:17:59.690Z,5.10
2022-12-12T23:21:23.914Z,5.13
2022-12-12T23:24:45.920Z,5.10
2022-12-12T23:28:13.780Z,5.57
2022-12-12T23:31:37.484Z,5.07
2022-12-12T23:34:59.513Z,5.23
2022-12-12T23:38:21.777Z,5.60
2022-12-12T23:41:43.338Z,4.67
2022-12-12T23:45:08.276Z,5.30
2022-12-12T23:48:30.822Z,5.17
2022-12-12T23:51:53.716Z,5.13
2022-12-12T23:55:15.558Z,5.53
2022-12-12T23:58:37.128Z,4.33
